createdAt,value
2022-11-14T00:01:46.858Z,16.42
2022-11-14T00:04:15.893Z,16.08
2022-11-14T00:06:45.011Z,18.77
2022-11-14T00:09:14.280Z,15.82
2022-11-14T00:11:43.371Z,19.88
2022-11-14T00:14:13.277Z,18.90
2022-11-14T00:16:42.296Z,16.42
2022-11-14T00:19:11.447Z,15.65
2022-11-14T00:21:40.957Z,15.55
2022-11-14T00:24:10.176Z,15.85
2022-11-14T00:26:39.221Z,21.95
2022-11-14T00:29:08.349Z,17.20
2022-11-14T00:31:37.396Z,19.08
2022-11-14T00:34:06.746Z,14.65
2022-11-14T00:36:38.896Z,15.05
2022-11-14T00:39:08.063Z,23.02
2022-11-14T00:41:37.102Z,21.55
2022-11-14T00:44:06.386Z,9.95
2022-11-14T00:46:36.494Z,18.02
2022-11-14T00:49:05.645Z,13.20
2022-11-14T00:51:34.736Z,12.60
2022-11-14T00:54:04.375Z,15.70
2022-11-14T00:56:33.532Z,14.65
2022-11-14T00:59:02.608Z,11.80
2022-11-14T01:01:31.704Z,16.13
2022-11-14T01:04:01.597Z,11.10
2022-11-14T01:06:30.748Z,12.65
2022-11-14T01:08:59.850Z,14.40
2022-11-14T01:11:28.946Z,10.00
2022-11-14T01:13:58.112Z,17.73
2022-11-14T01:16:27.285Z,16.67
2022-11-14T01:18:56.347Z,11.18
2022-11-14T01:21:25.713Z,9.55
2022-11-14T01:23:54.783Z,12.90
2022-11-14T01:26:23.844Z,20.80
2022-11-14T01:28:53.005Z,8.82
2022-11-14T01:31:27.444Z,9.85
2022-11-14T01:33:57.206Z,13.18
2022-11-14T01:36:26.304Z,10.48
2022-11-14T01:38:56.311Z,26.77
2022-11-14T01:41:26.300Z,17.83
2022-11-14T01:43:55.453Z,10.77
2022-11-14T01:46:42.818Z,7.40
2022-11-14T01:49:20.403Z,15.60
2022-11-14T01:52:05.568Z,8.07
2022-11-14T01:54:44.595Z,8.48
2022-11-14T01:57:19.700Z,8.25
2022-11-14T01:59:55.049Z,6.00
2022-11-14T02:02:28.272Z,5.93
2022-11-14T02:05:12.688Z,10.18
2022-11-14T02:07:43.353Z,8.02
2022-11-14T02:10:20.788Z,11.52
2022-11-14T02:12:52.356Z,7.43
2022-11-14T02:15:21.604Z,9.95
2022-11-14T02:17:51.751Z,8.13
2022-11-14T02:20:33.514Z,6.45
2022-11-14T02:23:02.754Z,8.70
2022-11-14T02:25:32.155Z,7.85
2022-11-14T02:28:06.680Z,5.60
2022-11-14T02:30:40.321Z,6.55
2022-11-14T02:33:14.937Z,7.22
2022-11-14T02:35:44.540Z,11.73
2022-11-14T02:38:17.593Z,8.50
2022-11-14T02:40:46.848Z,7.78
2022-11-14T02:43:16.075Z,10.05
2022-11-14T02:45:45.565Z,9.35
2022-11-14T02:48:14.775Z,7.88
2022-11-14T02:50:44.057Z,11.45
2022-11-14T02:53:13.269Z,7.32
2022-11-14T02:55:42.708Z,6.82
2022-11-14T02:58:11.929Z,8.35
2022-11-14T03:01:05.835Z,7.28
2022-11-14T03:03:30.799Z,6.45
2022-11-14T03:06:04.804Z,5.30
2022-11-14T03:08:34.250Z,6.65
2022-11-14T03:11:10.450Z,7.95
2022-11-14T03:13:39.678Z,15.55
2022-11-14T03:16:12.304Z,11.60
2022-11-14T03:18:41.798Z,8.20
2022-11-14T03:21:22.163Z,10.45
2022-11-14T03:23:52.267Z,13.20
2022-11-14T03:26:21.826Z,11.07
2022-11-14T03:28:51.645Z,9.38
2022-11-14T03:31:20.793Z,7.50
2022-11-14T03:33:49.949Z,7.82
2022-11-14T03:36:19.835Z,7.50
2022-11-14T03:38:49.523Z,7.72
2022-11-14T03:41:18.688Z,8.13
2022-11-14T03:43:47.888Z,6.93
2022-11-14T03:46:17.057Z,8.10
2022-11-14T03:48:46.352Z,9.18
2022-11-14T03:51:15.622Z,11.75
2022-11-14T03:53:44.756Z,8.93
2022-11-14T03:56:13.865Z,4.43
2022-11-14T03:58:43.113Z,4.88
2022-11-14T04:01:12.326Z,8.73
2022-11-14T04:03:41.535Z,5.13
2022-11-14T04:06:10.821Z,6.47
2022-11-14T04:08:42.491Z,4.22
2022-11-14T04:11:11.838Z,4.47
2022-11-14T04:13:40.950Z,9.77
2022-11-14T04:16:10.140Z,3.25
2022-11-14T04:18:39.478Z,7.22
2022-11-14T04:21:08.639Z,6.03
2022-11-14T04:23:37.775Z,4.40
2022-11-14T04:26:06.999Z,5.80
2022-11-14T04:28:36.103Z,8.85
2022-11-14T04:31:05.472Z,3.85
2022-11-14T04:33:34.594Z,7.85
2022-11-14T04:36:04.067Z,6.75
2022-11-14T04:38:33.722Z,9.75
2022-11-14T04:41:03.499Z,6.85
2022-11-14T04:43:32.635Z,6.00
2022-11-14T04:46:01.802Z,3.08
2022-11-14T04:48:31.346Z,8.43
2022-11-14T04:51:00.630Z,9.00
2022-11-14T04:53:29.809Z,4.53
2022-11-14T04:55:58.943Z,10.70
2022-11-14T04:58:29.121Z,4.53
2022-11-14T05:00:58.871Z,3.55
2022-11-14T05:03:28.110Z,4.90
2022-11-14T05:06:02.296Z,5.90
2022-11-14T05:08:31.908Z,5.28
2022-11-14T05:11:01.377Z,9.30
2022-11-14T05:13:31.200Z,5.55
2022-11-14T05:16:03.744Z,5.28
2022-11-14T05:18:33.028Z,6.35
2022-11-14T05:21:03.299Z,4.93
2022-11-14T05:23:33.149Z,7.28
2022-11-14T05:26:11.139Z,5.18
2022-11-14T05:28:40.529Z,4.85
2022-11-14T05:31:23.073Z,7.15
2022-11-14T05:33:52.615Z,6.38
2022-11-14T05:36:21.945Z,8.82
2022-11-14T05:38:51.300Z,8.43
2022-11-14T05:41:21.512Z,5.03
2022-11-14T05:43:50.615Z,5.32
2022-11-14T05:46:19.759Z,3.75
2022-11-14T05:48:48.945Z,4.13
2022-11-14T05:51:18.082Z,3.58
2022-11-14T05:53:47.268Z,5.22
2022-11-14T05:56:16.703Z,6.97
2022-11-14T05:58:45.888Z,5.13
2022-11-14T06:01:20.945Z,6.90
2022-11-14T06:03:51.263Z,7.20
2022-11-14T06:06:24.105Z,11.38
2022-11-14T06:08:54.555Z,4.10
2022-11-14T06:11:24.135Z,5.63
2022-11-14T06:13:54.665Z,6.50
2022-11-14T06:16:24.003Z,6.43
2022-11-14T06:18:56.344Z,8.30
2022-11-14T06:21:27.703Z,7.20
2022-11-14T06:23:56.898Z,8.20
2022-11-14T06:26:32.855Z,2.20
2022-11-14T06:29:02.391Z,4.43
2022-11-14T06:31:31.645Z,3.55
2022-11-14T06:34:01.106Z,9.88
2022-11-14T06:36:31.919Z,5.13
2022-11-14T06:39:02.171Z,7.18
2022-11-14T06:41:31.349Z,3.63
2022-11-14T06:44:00.422Z,6.55
2022-11-14T06:46:29.607Z,5.03
2022-11-14T06:48:58.701Z,3.92
2022-11-14T06:51:27.912Z,12.27
2022-11-14T06:53:57.075Z,3.13
2022-11-14T06:56:26.210Z,4.63
2022-11-14T06:58:55.316Z,9.57
2022-11-14T07:01:29.662Z,4.05
2022-11-14T07:04:03.235Z,4.53
2022-11-14T07:06:32.906Z,4.53
2022-11-14T07:09:02.011Z,9.35
2022-11-14T07:11:33.042Z,12.80
2022-11-14T07:14:04.322Z,6.63
2022-11-14T07:16:37.016Z,6.45
2022-11-14T07:19:10.723Z,3.90
2022-11-14T07:21:40.841Z,6.07
2022-11-14T07:24:10.281Z,9.63
2022-11-14T07:26:39.540Z,4.88
2022-11-14T07:29:08.720Z,13.50
2022-11-14T07:31:37.747Z,8.82
2022-11-14T07:34:07.118Z,4.38
2022-11-14T07:36:36.185Z,6.50
2022-11-14T07:39:06.544Z,5.47
2022-11-14T07:41:35.784Z,4.30
2022-11-14T07:44:05.015Z,6.72
2022-11-14T07:46:34.207Z,7.03
2022-11-14T07:49:03.453Z,6.65
2022-11-14T07:51:32.645Z,6.20
2022-11-14T07:54:01.756Z,6.85
2022-11-14T07:56:32.098Z,3.15
2022-11-14T07:59:01.256Z,11.38
2022-11-14T08:01:30.473Z,22.70
2022-11-14T08:03:59.625Z,37.08
2022-11-14T08:06:29.602Z,7.28
2022-11-14T08:08:58.720Z,16.67
2022-11-14T08:11:45.909Z,9.68
2022-11-14T08:14:15.059Z,7.80
2022-11-14T08:16:44.227Z,9.85
2022-11-14T08:19:13.376Z,22.17
2022-11-14T08:21:42.763Z,12.27
2022-11-14T08:24:12.138Z,8.60
2022-11-14T08:26:41.334Z,19.13
2022-11-14T08:29:10.464Z,13.18
2022-11-14T08:31:39.665Z,21.35
2022-11-14T08:34:09.073Z,24.05
2022-11-14T08:36:38.241Z,21.42
2022-11-14T08:39:08.273Z,27.38
2022-11-14T08:41:37.407Z,14.77
2022-11-14T08:44:06.884Z,16.70
2022-11-14T08:46:36.069Z,28.52
2022-11-14T08:49:05.191Z,25.50
2022-11-14T08:51:36.428Z,22.83
2022-11-14T08:54:06.068Z,17.63
2022-11-14T08:56:35.284Z,21.65
2022-11-14T08:59:08.973Z,25.98
2022-11-14T09:01:38.274Z,14.43
2022-11-14T09:04:07.594Z,18.20
2022-11-14T09:06:36.933Z,17.63
2022-11-14T09:09:06.133Z,12.68
2022-11-14T09:11:35.252Z,17.50
2022-11-14T09:14:04.541Z,13.70
2022-11-14T09:16:34.822Z,10.13
2022-11-14T09:19:03.931Z,13.65
2022-11-14T09:21:33.010Z,19.98
2022-11-14T09:24:02.247Z,19.65
2022-11-14T09:26:31.358Z,14.65
2022-11-14T09:29:01.825Z,9.68
2022-11-14T09:31:31.135Z,14.95
2022-11-14T09:34:00.267Z,24.65
2022-11-14T09:36:29.468Z,24.35
2022-11-14T09:38:59.813Z,14.60
2022-11-14T09:41:52.584Z,14.43
2022-11-14T09:45:05.866Z,21.85
2022-11-14T09:48:15.574Z,12.52
2022-11-14T09:51:15.416Z,18.10
2022-11-14T09:54:07.668Z,15.30
2022-11-14T09:56:36.942Z,14.07
2022-11-14T09:59:13.549Z,9.02
2022-11-14T10:02:15.429Z,19.20
2022-11-14T10:05:05.727Z,17.90
2022-11-14T10:08:06.645Z,23.65
2022-11-14T10:10:55.909Z,19.92
2022-11-14T10:13:43.002Z,16.25
2022-11-14T10:17:09.238Z,12.90
2022-11-14T10:20:03.375Z,14.38
2022-11-14T10:23:23.073Z,16.42
2022-11-14T10:26:09.972Z,13.85
2022-11-14T10:29:42.049Z,12.70
2022-11-14T10:32:47.186Z,14.43
2022-11-14T10:35:51.456Z,12.15
2022-11-14T10:38:46.865Z,10.93
2022-11-14T10:41:34.750Z,8.63
2022-11-14T10:44:10.055Z,6.88
2022-11-14T10:46:52.422Z,6.90
2022-11-14T10:49:27.669Z,14.57
2022-11-14T10:52:03.855Z,7.00
2022-11-14T10:54:43.288Z,5.05
2022-11-14T10:57:24.293Z,6.25
2022-11-14T10:59:54.814Z,11.65
2022-11-14T11:02:24.630Z,9.20
2022-11-14T11:04:53.914Z,8.45
2022-11-14T11:07:46.411Z,9.75
2022-11-14T11:10:43.748Z,7.75
2022-11-14T11:13:32.704Z,6.40
2022-11-14T11:16:06.192Z,6.22
2022-11-14T11:18:38.315Z,9.23
2022-11-14T11:21:15.512Z,11.52
2022-11-14T11:23:59.136Z,12.52
2022-11-14T11:26:31.890Z,11.13
2022-11-14T11:29:13.334Z,14.05
2022-11-14T11:31:54.060Z,9.75
2022-11-14T11:34:29.919Z,11.75
2022-11-14T11:37:22.055Z,6.40
2022-11-14T11:39:58.447Z,6.88
2022-11-14T11:45:52.307Z,9.43
2022-11-14T11:48:25.039Z,12.90
2022-11-14T11:50:54.222Z,16.02
2022-11-14T11:53:51.233Z,8.10
2022-11-14T11:56:28.964Z,8.98
2022-11-14T11:59:24.375Z,9.50
2022-11-14T12:01:55.203Z,13.02
2022-11-14T12:04:24.939Z,13.73
2022-11-14T12:07:11.870Z,19.05
2022-11-14T12:10:09.447Z,9.55
2022-11-14T12:12:46.269Z,21.90
2022-11-14T12:16:01.429Z,14.43
2022-11-14T12:18:37.202Z,15.32
2022-11-14T12:21:40.007Z,11.85
2022-11-14T12:24:54.213Z,20.65
2022-11-14T12:27:53.274Z,14.98
2022-11-14T12:30:26.084Z,11.10
2022-11-14T12:33:02.041Z,14.70
2022-11-14T12:35:37.747Z,16.00
2022-11-14T12:38:20.485Z,11.75
2022-11-14T12:41:01.938Z,14.68
2022-11-14T12:43:41.121Z,10.65
2022-11-14T12:46:15.069Z,17.58
2022-11-14T12:48:46.923Z,8.07
2022-11-14T12:51:28.410Z,12.48
2022-11-14T12:54:00.547Z,11.88
2022-11-14T12:56:32.526Z,9.65
2022-11-14T12:59:38.743Z,11.38
2022-11-14T13:02:36.772Z,11.30
2022-11-14T13:05:49.030Z,10.07
2022-11-14T13:09:08.575Z,22.45
2022-11-14T13:12:04.167Z,8.40
2022-11-14T13:15:11.670Z,17.75
2022-11-14T13:17:59.835Z,11.25
2022-11-14T13:20:56.196Z,13.75
2022-11-14T13:23:28.636Z,15.52
2022-11-14T13:26:13.346Z,13.90
2022-11-14T13:28:54.105Z,11.35
2022-11-14T13:31:38.679Z,14.85
2022-11-14T13:34:53.587Z,13.32
2022-11-14T13:38:02.614Z,15.30
2022-11-14T13:41:00.426Z,14.13
2022-11-14T13:44:03.364Z,14.13
2022-11-14T13:47:03.082Z,13.05
2022-11-14T13:50:18.259Z,18.58
2022-11-14T13:52:50.220Z,16.08
2022-11-14T13:55:29.704Z,16.70
2022-11-14T13:58:32.085Z,16.83
2022-11-14T14:01:23.315Z,11.85
2022-11-14T14:04:11.719Z,17.90
2022-11-14T14:06:58.143Z,15.55
2022-11-14T14:09:32.297Z,15.32
2022-11-14T14:12:32.130Z,13.65
2022-11-14T14:15:28.955Z,12.60
2022-11-14T14:18:29.498Z,23.42
2022-11-14T14:21:23.217Z,12.60
2022-11-14T14:24:16.423Z,19.00
2022-11-14T14:27:25.568Z,14.25
2022-11-14T14:30:14.110Z,15.18
2022-11-14T14:32:44.091Z,12.70
2022-11-14T14:35:53.041Z,20.70
2022-11-14T14:38:28.906Z,13.98
2022-11-14T14:40:58.916Z,13.35
2022-11-14T14:43:38.068Z,11.48
2022-11-14T14:46:07.392Z,11.38
2022-11-14T14:48:43.486Z,11.13
2022-11-14T14:51:16.333Z,17.45
2022-11-14T14:53:54.999Z,16.77
2022-11-14T14:56:26.452Z,22.85
2022-11-14T14:58:56.252Z,19.63
2022-11-14T15:01:37.269Z,23.90
2022-11-14T15:04:16.813Z,17.23
2022-11-14T15:06:49.081Z,16.83
2022-11-14T15:09:32.860Z,16.13
2022-11-14T15:12:03.893Z,17.65
2022-11-14T15:14:40.101Z,18.73
2022-11-14T15:17:10.854Z,18.42
2022-11-14T15:19:47.299Z,18.35
2022-11-14T15:22:19.421Z,29.63
2022-11-14T15:25:18.177Z,21.65
2022-11-14T15:28:01.376Z,17.13
2022-11-14T15:30:35.776Z,16.48
2022-11-14T15:33:08.423Z,18.23
2022-11-14T15:35:40.511Z,15.70
2022-11-14T15:38:42.641Z,15.90
2022-11-14T15:41:29.055Z,15.93
2022-11-14T15:44:06.483Z,14.35
2022-11-14T15:46:47.502Z,20.40
2022-11-14T15:49:16.514Z,11.88
2022-11-14T15:52:03.824Z,13.13
2022-11-14T15:54:38.736Z,11.85
2022-11-14T15:57:18.362Z,13.48
2022-11-14T15:59:47.562Z,15.25
2022-11-14T16:02:37.101Z,17.85
2022-11-14T16:05:07.845Z,17.67
2022-11-14T16:07:37.153Z,13.73
2022-11-14T16:10:18.571Z,26.25
2022-11-14T16:12:52.158Z,12.10
2022-11-14T16:15:23.130Z,14.60
2022-11-14T16:17:52.827Z,12.73
2022-11-14T16:20:34.506Z,16.48
2022-11-14T16:23:06.255Z,11.90
2022-11-14T16:25:35.753Z,16.70
2022-11-14T16:28:04.919Z,9.82
2022-11-14T16:30:34.190Z,12.82
2022-11-14T16:33:03.424Z,11.90
2022-11-14T16:35:32.756Z,19.70
2022-11-14T16:38:02.086Z,22.15
2022-11-14T16:40:31.237Z,18.23
2022-11-14T16:43:02.297Z,15.55
2022-11-14T16:45:31.558Z,19.55
2022-11-14T16:48:00.890Z,16.35
2022-11-14T16:50:30.093Z,13.48
2022-11-14T16:52:59.237Z,17.05
2022-11-14T16:55:28.397Z,15.75
2022-11-14T16:57:57.584Z,20.63
2022-11-14T17:00:26.826Z,16.38
2022-11-14T17:02:56.778Z,20.25
2022-11-14T17:05:26.048Z,12.52
2022-11-14T17:07:57.855Z,20.83
2022-11-14T17:10:27.005Z,17.50
2022-11-14T17:12:56.167Z,13.30
2022-11-14T17:15:25.361Z,12.77
2022-11-14T17:17:54.489Z,10.02
2022-11-14T17:20:23.623Z,14.90
2022-11-14T17:22:52.877Z,17.42
2022-11-14T17:25:22.458Z,11.80
2022-11-14T17:27:51.840Z,19.63
2022-11-14T17:30:21.972Z,17.63
2022-11-14T17:32:56.180Z,13.40
2022-11-14T17:35:25.911Z,18.30
2022-11-14T17:37:59.936Z,15.00
2022-11-14T17:40:29.693Z,16.17
2022-11-14T17:42:58.840Z,19.88
2022-11-14T17:45:27.993Z,14.68
2022-11-14T17:47:57.211Z,18.55
2022-11-14T17:50:26.385Z,15.55
2022-11-14T17:52:55.536Z,17.88
2022-11-14T17:55:24.736Z,17.15
2022-11-14T17:57:54.183Z,12.23
2022-11-14T18:00:23.462Z,15.70
2022-11-14T18:02:53.336Z,12.38
2022-11-14T18:05:23.173Z,14.68
2022-11-14T18:07:52.385Z,14.40
2022-11-14T18:10:21.673Z,12.82
2022-11-14T18:12:50.870Z,12.57
2022-11-14T18:15:22.686Z,12.45
2022-11-14T18:17:55.844Z,16.15
2022-11-14T18:20:25.184Z,13.27
2022-11-14T18:22:54.381Z,16.88
2022-11-14T18:25:23.502Z,23.92
2022-11-14T18:27:53.378Z,18.20
2022-11-14T18:33:12.770Z,14.18
2022-11-14T18:35:42.418Z,13.65
2022-11-14T18:38:13.253Z,16.00
2022-11-14T18:40:46.020Z,14.38
2022-11-14T18:43:17.128Z,31.40
2022-11-14T18:45:46.905Z,10.23
2022-11-14T18:48:16.776Z,11.75
2022-11-14T18:50:46.718Z,15.02
2022-11-14T18:53:15.793Z,16.67
2022-11-14T18:56:21.233Z,14.07
2022-11-14T18:58:57.958Z,17.38
2022-11-14T19:01:30.890Z,13.25
2022-11-14T19:04:09.354Z,10.50
2022-11-14T19:09:14.532Z,21.90
2022-11-14T19:12:03.209Z,11.20
2022-11-14T19:14:32.410Z,15.35
2022-11-14T19:17:01.872Z,11.93
2022-11-14T19:19:31.683Z,17.35
2022-11-14T19:22:00.888Z,13.43
2022-11-14T19:24:30.055Z,15.02
2022-11-14T19:26:59.402Z,15.23
2022-11-14T19:29:32.587Z,12.00
2022-11-14T19:32:02.380Z,11.95
2022-11-14T19:34:31.623Z,10.23
2022-11-14T19:37:01.392Z,16.70
2022-11-14T19:39:31.452Z,13.18
2022-11-14T19:42:00.730Z,10.18
2022-11-14T19:44:29.925Z,13.13
2022-11-14T19:46:59.080Z,9.70
2022-11-14T19:49:28.290Z,10.75
2022-11-14T19:51:57.505Z,9.13
2022-11-14T19:54:26.639Z,9.82
2022-11-14T19:56:55.782Z,11.32
2022-11-14T19:59:28.898Z,10.52
2022-11-14T20:01:58.943Z,9.23
2022-11-14T20:04:30.782Z,8.15
2022-11-14T20:07:02.476Z,8.98
2022-11-14T20:09:31.625Z,11.60
2022-11-14T20:12:00.800Z,11.48
2022-11-14T20:14:29.910Z,12.65
2022-11-14T20:16:59.040Z,14.57
2022-11-14T20:19:28.583Z,9.77
2022-11-14T20:21:57.687Z,12.95
2022-11-14T20:24:26.775Z,9.57
2022-11-14T20:26:55.915Z,9.95
2022-11-14T20:29:25.130Z,6.63
2022-11-14T20:31:54.303Z,9.52
2022-11-14T20:34:23.910Z,8.55
2022-11-14T20:39:42.128Z,10.60
2022-11-14T20:42:11.279Z,12.70
2022-11-14T20:44:40.481Z,9.95
2022-11-14T20:47:11.218Z,9.60
2022-11-14T20:49:40.541Z,14.27
2022-11-14T20:52:09.641Z,11.63
2022-11-14T20:54:38.739Z,12.05
2022-11-14T20:57:07.826Z,11.02
2022-11-14T20:59:36.959Z,16.35
2022-11-14T21:02:07.146Z,10.00
2022-11-14T21:04:36.416Z,12.55
2022-11-14T21:07:05.592Z,14.38
2022-11-14T21:09:34.763Z,9.88
2022-11-14T21:12:03.935Z,10.80
2022-11-14T21:14:33.082Z,13.50
2022-11-14T21:17:02.264Z,17.00
2022-11-14T21:19:32.960Z,13.30
2022-11-14T21:22:02.115Z,15.57
2022-11-14T21:24:31.499Z,12.75
2022-11-14T21:27:01.887Z,16.85
2022-11-14T21:29:31.108Z,14.30
2022-11-14T21:32:00.299Z,11.65
2022-11-14T21:34:29.424Z,16.48
2022-11-14T21:36:59.728Z,16.52
2022-11-14T21:39:28.832Z,16.90
2022-11-14T21:41:57.979Z,13.75
2022-11-14T21:44:27.150Z,14.02
2022-11-14T21:46:56.398Z,14.30
2022-11-14T21:49:25.630Z,15.80
2022-11-14T21:51:54.838Z,20.50
2022-11-14T21:54:24.003Z,10.93
2022-11-14T21:56:53.253Z,9.45
2022-11-14T21:59:26.691Z,13.88
2022-11-14T22:02:15.355Z,13.88
2022-11-14T22:04:45.003Z,9.65
2022-11-14T22:07:14.194Z,11.75
2022-11-14T22:09:45.540Z,12.10
2022-11-14T22:12:14.903Z,17.23
2022-11-14T22:14:44.051Z,12.60
2022-11-14T22:17:13.236Z,13.52
2022-11-14T22:19:42.440Z,12.82
2022-11-14T22:22:11.637Z,15.73
2022-11-14T22:24:40.845Z,14.82
2022-11-14T22:27:09.999Z,22.10
2022-11-14T22:29:39.547Z,13.82
2022-11-14T22:32:08.728Z,17.75
2022-11-14T22:34:38.291Z,14.00
2022-11-14T22:37:07.458Z,13.38
2022-11-14T22:39:37.061Z,13.13
2022-11-14T22:42:06.322Z,12.55
2022-11-14T22:44:35.444Z,14.15
2022-11-14T22:47:04.621Z,16.20
2022-11-14T22:49:33.761Z,10.75
2022-11-14T22:52:02.934Z,11.75
2022-11-14T22:54:32.115Z,14.80
2022-11-14T22:57:01.316Z,14.95
2022-11-14T22:59:30.560Z,15.13
2022-11-14T23:02:00.387Z,15.88
2022-11-14T23:04:30.087Z,16.88
2022-11-14T23:06:59.271Z,12.32
2022-11-14T23:09:30.772Z,17.77
2022-11-14T23:11:59.889Z,14.68
2022-11-14T23:14:28.958Z,19.98
2022-11-14T23:16:58.270Z,15.90
2022-11-14T23:19:27.387Z,13.82
2022-11-14T23:21:56.540Z,19.80
2022-11-14T23:24:25.609Z,21.52
2022-11-14T23:26:56.088Z,23.70
2022-11-14T23:29:25.333Z,17.02
2022-11-14T23:31:54.526Z,17.40
2022-11-14T23:34:23.624Z,14.55
2022-11-14T23:36:52.702Z,17.88
2022-11-14T23:39:21.809Z,21.33
2022-11-14T23:41:50.929Z,37.05
2022-11-14T23:44:19.987Z,19.67
2022-11-14T23:46:49.091Z,27.52
2022-11-14T23:49:18.148Z,25.90
2022-11-14T23:51:47.283Z,23.17
2022-11-14T23:54:16.396Z,22.08
2022-11-14T23:56:45.797Z,19.17
2022-11-14T23:59:14.955Z,26.58
